createdAt,value
2019-04-20T00:01:48.913Z,94769.09
2019-04-20T00:04:23.382Z,94772.28
2019-04-20T00:06:51.360Z,94773.06
2019-04-20T00:09:23.076Z,94760.76
2019-04-20T00:12:00.985Z,94766.70
2019-04-20T00:14:24.049Z,94764.75
2019-04-20T00:16:48.580Z,94759.59
2019-04-20T00:19:22.435Z,94758.57
2019-04-20T00:21:58.580Z,94761.20
2019-04-20T00:24:27.583Z,94761.88
2019-04-20T00:27:18.205Z,94764.22
2019-04-20T00:29:40.510Z,94759.31
2019-04-20T00:32:06.403Z,94751.98
2019-04-20T00:34:31.439Z,94754.05
2019-04-20T00:36:56.122Z,94755.75
2019-04-20T00:39:25.890Z,94758.77
2019-04-20T00:42:00.420Z,94757.76
2019-04-20T00:44:31.701Z,94755.47
2019-04-20T00:47:08.451Z,94755.16
2019-04-20T00:49:38.793Z,94749.37
2019-04-20T00:52:24.116Z,94750.55
2019-04-20T00:54:26.346Z,94752.56
2019-04-20T00:57:07.861Z,94751.25
2019-04-20T00:59:35.505Z,94748.63
2019-04-20T01:02:14.877Z,94746.98
2019-04-20T01:04:49.323Z,94749.11
2019-04-20T01:07:17.661Z,94743.05
2019-04-20T01:09:52.644Z,94745.68
2019-04-20T01:12:26.298Z,94742.09
2019-04-20T01:14:56.902Z,94743.41
2019-04-20T01:17:21.404Z,94747.35
2019-04-20T01:19:52.797Z,94744.23
2019-04-20T01:22:24.084Z,94743.73
2019-04-20T01:24:51.676Z,94751.61
2019-04-20T01:27:36.362Z,94745.39
2019-04-20T01:29:57.619Z,94748.66
2019-04-20T01:32:31.346Z,94738.19
2019-04-20T01:35:03.957Z,94745.72
2019-04-20T01:37:32.802Z,94742.59
2019-04-20T01:39:55.457Z,94739.31
2019-04-20T01:42:23.327Z,94737.85
2019-04-20T01:44:54.086Z,94737.16
2019-04-20T01:47:23.909Z,94733.25
2019-04-20T01:49:57.513Z,94728.98
2019-04-20T01:52:29.680Z,94737.48
2019-04-20T01:55:28.782Z,94735.50
2019-04-20T01:58:00.485Z,94736.44
2019-04-20T02:00:25.872Z,94733.83
2019-04-20T02:02:58.376Z,94736.14
2019-04-20T02:05:28.046Z,94724.67
2019-04-20T02:07:55.213Z,94738.42
2019-04-20T02:10:34.234Z,94728.89
2019-04-20T02:12:57.906Z,94732.81
2019-04-20T02:15:30.975Z,94731.47
2019-04-20T02:18:07.742Z,94732.42
2019-04-20T02:20:47.292Z,94729.38
2019-04-20T02:23:07.330Z,94737.66
2019-04-20T02:25:24.950Z,94736.95
2019-04-20T02:28:06.463Z,94740.53
2019-04-20T02:31:06.514Z,94731.75
2019-04-20T02:33:47.273Z,94738.19
2019-04-20T02:36:22.664Z,94730.98
2019-04-20T02:41:20.170Z,94737.09
2019-04-20T02:46:22.544Z,94734.55
2019-04-20T02:48:53.542Z,94733.93
2019-04-20T02:51:23.442Z,94742.73
2019-04-20T02:54:05.801Z,94739.02
2019-04-20T02:56:29.700Z,94739.90
2019-04-20T02:59:14.750Z,94740.59
2019-04-20T03:01:29.428Z,94734.13
2019-04-20T03:03:43.250Z,94728.92
2019-04-20T03:06:21.459Z,94720.10
2019-04-20T03:08:56.381Z,94734.41
2019-04-20T03:11:37.487Z,94739.90
2019-04-20T03:13:59.253Z,94733.80
2019-04-20T03:16:24.258Z,94734.08
2019-04-20T03:18:53.733Z,94719.27
2019-04-20T03:21:33.250Z,94716.95
2019-04-20T03:24:06.353Z,94724.74
2019-04-20T03:26:31.297Z,94723.75
2019-04-20T03:29:01.509Z,94721.14
2019-04-20T03:32:22.213Z,94723.70
2019-04-20T03:36:53.506Z,94724.16
2019-04-20T03:39:16.758Z,94728.56
2019-04-20T03:41:32.492Z,94726.72
2019-04-20T03:44:01.026Z,94728.31
2019-04-20T03:46:33.489Z,94729.64
2019-04-20T03:49:09.546Z,94725.95
2019-04-20T03:51:47.256Z,94728.24
2019-04-20T03:54:22.256Z,94727.23
2019-04-20T03:56:55.358Z,94729.77
2019-04-20T03:59:29.024Z,94736.27
2019-04-20T04:02:28.551Z,94733.80
2019-04-20T04:04:33.918Z,94725.52
2019-04-20T04:06:50.956Z,94729.16
2019-04-20T04:09:25.753Z,94728.09
2019-04-20T04:12:01.294Z,94725.48
2019-04-20T04:14:15.750Z,94733.66
2019-04-20T04:16:49.756Z,94733.30
2019-04-20T04:19:21.649Z,94732.38
2019-04-20T04:22:01.617Z,94733.30
2019-04-20T04:24:26.111Z,94730.60
2019-04-20T04:26:58.315Z,94731.33
2019-04-20T04:29:36.246Z,94731.75
2019-04-20T04:32:12.807Z,94731.28
2019-04-20T04:34:34.979Z,94736.05
2019-04-20T04:37:03.655Z,94729.27
2019-04-20T04:39:35.428Z,94733.58
2019-04-20T04:42:14.551Z,94743.73
2019-04-20T04:44:33.445Z,94737.44
2019-04-20T04:46:54.684Z,94736.50
2019-04-20T04:49:25.846Z,94746.62
2019-04-20T04:51:58.492Z,94736.50
2019-04-20T04:54:28.936Z,94739.76
2019-04-20T04:56:48.447Z,94753.97
2019-04-20T04:59:17.175Z,94745.34
2019-04-20T05:01:50.015Z,94749.59
2019-04-20T05:04:44.592Z,94744.30
2019-04-20T05:07:02.567Z,94748.77
2019-04-20T05:09:20.221Z,94742.05
2019-04-20T05:11:56.917Z,94739.80
2019-04-20T05:14:24.373Z,94743.90
2019-04-20T05:17:01.585Z,94747.83
2019-04-20T05:19:40.979Z,94745.89
2019-04-20T05:22:17.833Z,94749.22
2019-04-20T05:24:43.939Z,94746.97
2019-04-20T05:27:20.720Z,94749.97
2019-04-20T05:29:31.698Z,94747.19
2019-04-20T05:32:07.349Z,94747.32
2019-04-20T05:34:52.562Z,94747.97
2019-04-20T05:37:27.204Z,94749.87
2019-04-20T05:39:50.387Z,94748.83
2019-04-20T05:42:28.165Z,94752.45
2019-04-20T05:44:50.097Z,94752.39
2019-04-20T05:47:21.484Z,94755.38
2019-04-20T05:49:50.880Z,94750.19
2019-04-20T05:52:42.671Z,94754.02
2019-04-20T05:54:58.453Z,94752.41
2019-04-20T05:57:32.940Z,94752.95
2019-04-20T06:02:22.905Z,94755.33
2019-04-20T06:07:26.821Z,94752.59
2019-04-20T06:09:54.446Z,94750.17
2019-04-20T06:12:28.579Z,94747.31
2019-04-20T06:14:55.874Z,94749.25
2019-04-20T06:17:31.450Z,94752.32
2019-04-20T06:20:06.445Z,94744.13
2019-04-20T06:22:40.774Z,94744.93
2019-04-20T06:25:21.958Z,94742.77
2019-04-20T06:27:41.055Z,94742.89
2019-04-20T06:30:05.862Z,94736.47
2019-04-20T06:33:21.954Z,94743.30
2019-04-20T06:35:59.173Z,94746.14
2019-04-20T06:38:36.769Z,94747.84
2019-04-20T06:40:57.871Z,94746.55
2019-04-20T06:43:12.587Z,94756.27
2019-04-20T06:45:54.540Z,94746.66
2019-04-20T06:48:23.228Z,94748.41
2019-04-20T06:50:44.369Z,94744.95
2019-04-20T06:53:28.526Z,94743.20
2019-04-20T06:55:57.334Z,94739.17
2019-04-20T06:58:39.158Z,94738.33
2019-04-20T07:00:56.359Z,94744.13
2019-04-20T07:03:40.598Z,94746.55
2019-04-20T07:05:55.181Z,94747.86
2019-04-20T07:08:42.625Z,94748.16
2019-04-20T07:10:57.822Z,94745.31
2019-04-20T07:13:17.716Z,94752.43
2019-04-20T07:15:50.824Z,94746.35
2019-04-20T07:18:29.826Z,94755.36
2019-04-20T07:21:15.968Z,94756.19
2019-04-20T07:26:02.136Z,94755.94
2019-04-20T07:28:32.910Z,94756.57
2019-04-20T07:30:56.992Z,94754.19
2019-04-20T07:33:33.443Z,94752.81
2019-04-20T07:35:57.449Z,94752.65
2019-04-20T07:38:36.597Z,94752.54
2019-04-20T07:41:00.015Z,94751.64
2019-04-20T07:43:30.533Z,94745.75
2019-04-20T07:46:04.680Z,94748.16
2019-04-20T07:48:27.718Z,94746.72
2019-04-20T07:50:52.101Z,94749.20
2019-04-20T07:53:25.760Z,94747.02
2019-04-20T07:56:17.738Z,94743.42
2019-04-20T07:58:22.866Z,94745.44
2019-04-20T08:01:10.348Z,94747.28
2019-04-20T08:03:39.334Z,94731.30
2019-04-20T08:05:56.224Z,94739.45
2019-04-20T08:08:32.596Z,94732.09
2019-04-20T08:10:58.659Z,94736.69
2019-04-20T08:13:51.326Z,94730.75
2019-04-20T08:16:08.767Z,94728.73
2019-04-20T08:18:39.981Z,94727.65
2019-04-20T08:21:11.352Z,94728.99
2019-04-20T08:23:40.247Z,94727.92
2019-04-20T08:25:58.352Z,94726.36
2019-04-20T08:28:28.392Z,94726.03
2019-04-20T08:31:06.682Z,94727.68
2019-04-20T08:33:54.951Z,94726.63
2019-04-20T08:36:18.630Z,94715.84
2019-04-20T08:39:11.450Z,94721.81
2019-04-20T08:41:14.217Z,94721.78
2019-04-20T08:46:17.776Z,94720.94
2019-04-20T08:48:46.761Z,94724.59
2019-04-20T08:51:14.575Z,94718.81
2019-04-20T08:53:48.059Z,94719.39
2019-04-20T08:56:10.950Z,94719.34
2019-04-20T08:58:27.539Z,94712.31
2019-04-20T09:01:01.287Z,94712.31
2019-04-20T09:03:32.592Z,94711.56
2019-04-20T09:06:05.553Z,94711.56
2019-04-20T09:08:36.606Z,94690.07
2019-04-20T09:11:15.410Z,94716.70
2019-04-20T09:13:38.607Z,94704.98
2019-04-20T09:15:58.305Z,94705.53
2019-04-20T09:18:39.095Z,94700.42
2019-04-20T09:21:07.812Z,94700.42
2019-04-20T09:23:46.903Z,94702.84
2019-04-20T09:26:16.298Z,94701.53
2019-04-20T09:28:39.611Z,94700.38
2019-04-20T09:31:29.715Z,94700.09
2019-04-20T09:33:55.565Z,94692.90
2019-04-20T09:36:23.946Z,94692.90
2019-04-20T09:39:08.579Z,94712.65
2019-04-20T09:41:59.646Z,94691.65
2019-04-20T09:44:17.720Z,94703.58
2019-04-20T09:46:51.325Z,94752.18
2019-04-20T09:49:30.695Z,94678.84
2019-04-20T09:52:01.425Z,94693.22
2019-04-20T09:54:36.015Z,94698.34
2019-04-20T09:57:09.207Z,94693.76
2019-04-20T09:59:37.255Z,94693.06
2019-04-20T10:01:55.648Z,94682.45
2019-04-20T10:04:19.580Z,94683.66
2019-04-20T10:06:49.610Z,94675.95
2019-04-20T10:09:21.248Z,94688.13
2019-04-20T10:11:49.323Z,94681.93
2019-04-20T10:14:19.945Z,94680.39
2019-04-20T10:16:49.714Z,94683.56
2019-04-20T10:19:24.854Z,94679.23
2019-04-20T10:21:48.698Z,94685.48
2019-04-20T10:24:17.207Z,94677.96
2019-04-20T10:26:45.776Z,94670.51
2019-04-20T10:29:15.464Z,94677.23
2019-04-20T10:31:50.525Z,94676.80
2019-04-20T10:34:15.710Z,94678.95
2019-04-20T10:36:45.959Z,94674.86
2019-04-20T10:39:16.259Z,94670.19
2019-04-20T10:41:50.582Z,94660.13
2019-04-20T10:44:15.063Z,94668.19
2019-04-20T10:46:44.866Z,94665.90
2019-04-20T10:49:13.441Z,94670.65
2019-04-20T10:51:41.882Z,94676.14
2019-04-20T10:54:10.417Z,94666.37
2019-04-20T10:56:39.372Z,94672.15
2019-04-20T10:59:08.041Z,94670.67
2019-04-20T11:01:37.847Z,94670.08
2019-04-20T11:04:08.352Z,94656.32
2019-04-20T11:06:37.015Z,94665.47
2019-04-20T11:09:08.927Z,94673.08
2019-04-20T11:11:38.729Z,94663.00
2019-04-20T11:14:15.535Z,94655.73
2019-04-20T11:16:38.262Z,94659.95
2019-04-20T11:19:07.430Z,94675.70
2019-04-20T11:21:36.482Z,94666.91
2019-04-20T11:24:05.232Z,94663.86
2019-04-20T11:26:36.498Z,94657.59
2019-04-20T11:29:04.255Z,94661.23
2019-04-20T11:31:39.139Z,94654.77
2019-04-20T11:34:03.941Z,94655.39
2019-04-20T11:36:32.970Z,94652.09
2019-04-20T11:39:02.968Z,94649.77
2019-04-20T11:41:34.057Z,94652.80
2019-04-20T11:44:02.124Z,94648.58
2019-04-20T11:46:30.645Z,94645.34
2019-04-20T11:48:59.439Z,94645.59
2019-04-20T11:51:29.698Z,94648.64
2019-04-20T11:53:58.571Z,94652.66
2019-04-20T11:56:33.332Z,94642.20
2019-04-20T11:58:58.770Z,94633.03
2019-04-20T12:01:53.072Z,94622.34
2019-04-20T12:04:30.441Z,94617.78
2019-04-20T12:06:48.750Z,94616.97
2019-04-20T12:09:17.362Z,94616.66
2019-04-20T12:11:59.655Z,94620.48
2019-04-20T12:14:16.707Z,94616.70
2019-04-20T12:16:45.860Z,94612.97
2019-04-20T12:19:14.770Z,94616.58
2019-04-20T12:21:43.825Z,94617.09
2019-04-20T12:24:12.318Z,94617.34
2019-04-20T12:26:40.710Z,94601.92
2019-04-20T12:29:09.928Z,94602.46
2019-04-20T12:31:39.669Z,94607.74
2019-04-20T12:34:08.625Z,94602.97
2019-04-20T12:36:37.378Z,94610.23
2019-04-20T12:39:08.953Z,94606.56
2019-04-20T12:41:45.296Z,94601.43
2019-04-20T12:44:07.979Z,94609.05
2019-04-20T12:46:36.552Z,94616.70
2019-04-20T12:49:05.503Z,94606.66
2019-04-20T12:51:39.948Z,94608.79
2019-04-20T12:54:04.707Z,94601.05
2019-04-20T12:56:33.151Z,94600.58
2019-04-20T12:59:01.705Z,94595.51
2019-04-20T13:01:30.297Z,94598.76
2019-04-20T13:03:59.789Z,94602.22
2019-04-20T13:06:30.069Z,94607.66
2019-04-20T13:09:00.673Z,94601.41
2019-04-20T13:11:34.664Z,94599.08
2019-04-20T13:14:32.687Z,94595.16
2019-04-20T13:17:02.091Z,94590.39
2019-04-20T13:19:31.193Z,94591.47
2019-04-20T13:22:01.099Z,94587.08
2019-04-20T13:24:29.682Z,94595.99
2019-04-20T13:26:58.689Z,94583.66
2019-04-20T13:29:27.192Z,94585.98
2019-04-20T13:31:56.776Z,94585.00
2019-04-20T13:34:26.431Z,94576.98
2019-04-20T13:36:55.954Z,94568.91
2019-04-20T13:39:24.824Z,94570.70
2019-04-20T13:42:03.415Z,94575.22
2019-04-20T13:44:24.064Z,94566.04
2019-04-20T13:46:52.528Z,94566.70
2019-04-20T13:49:20.976Z,94561.20
2019-04-20T13:51:50.748Z,94560.88
2019-04-20T13:54:23.926Z,94557.95
2019-04-20T13:56:52.161Z,94558.14
2019-04-20T13:59:29.705Z,94570.36
2019-04-20T14:02:00.157Z,94561.66
2019-04-20T14:04:30.702Z,94551.65
2019-04-20T14:06:59.643Z,94554.61
2019-04-20T14:09:29.585Z,94554.47
2019-04-20T14:12:11.839Z,94554.81
2019-04-20T14:14:28.937Z,94544.66
2019-04-20T14:16:58.942Z,94551.87
2019-04-20T14:19:27.550Z,94542.98
2019-04-20T14:21:56.448Z,94538.34
2019-04-20T14:24:26.694Z,94542.97
2019-04-20T14:26:56.883Z,94538.30
2019-04-20T14:29:25.555Z,94544.63
2019-04-20T14:31:53.977Z,94536.83
2019-04-20T14:34:22.710Z,94533.56
2019-04-20T14:36:51.240Z,94531.38
2019-04-20T14:39:20.395Z,94529.77
2019-04-20T14:41:49.092Z,94524.33
2019-04-20T14:44:17.600Z,94519.92
2019-04-20T14:46:47.459Z,94517.44
2019-04-20T14:49:16.625Z,94509.91
2019-04-20T14:51:45.812Z,94515.06
2019-04-20T14:54:14.319Z,94508.78
2019-04-20T14:56:43.449Z,94508.98
2019-04-20T14:59:33.684Z,94515.09
2019-04-20T15:02:04.092Z,94511.95
2019-04-20T15:04:34.615Z,94501.83
2019-04-20T15:07:04.635Z,94506.88
2019-04-20T15:09:36.993Z,94503.94
2019-04-20T15:12:04.708Z,94501.53
2019-04-20T15:14:34.512Z,94501.73
2019-04-20T15:17:04.652Z,94500.63
2019-04-20T15:19:41.368Z,94496.03
2019-04-20T15:22:27.905Z,94496.61
2019-04-20T15:24:57.633Z,94496.73
2019-04-20T15:27:26.443Z,94491.11
2019-04-20T15:29:56.121Z,94490.16
2019-04-20T15:32:25.067Z,94484.23
2019-04-20T15:34:55.008Z,94485.86
2019-04-20T15:37:23.808Z,94489.80
2019-04-20T15:39:52.848Z,94479.61
2019-04-20T15:42:21.419Z,94482.16
2019-04-20T15:44:51.331Z,94472.27
2019-04-20T15:47:20.318Z,94467.31
2019-04-20T15:49:49.782Z,94465.78
2019-04-20T15:52:24.530Z,94464.90
2019-04-20T15:54:49.707Z,94463.61
2019-04-20T15:57:22.988Z,94472.19
2019-04-20T15:59:48.689Z,94467.98
2019-04-20T16:02:18.689Z,94464.85
2019-04-20T16:04:52.596Z,94465.72
2019-04-20T16:07:21.510Z,94458.69
2019-04-20T16:09:50.456Z,94457.73
2019-04-20T16:12:20.826Z,94470.07
2019-04-20T16:14:49.560Z,94457.92
2019-04-20T16:17:19.497Z,94457.09
2019-04-20T16:19:55.114Z,94456.16
2019-04-20T16:22:19.933Z,94456.16
2019-04-20T16:24:59.341Z,94455.06
2019-04-20T16:27:29.825Z,94455.64
2019-04-20T16:29:59.812Z,94456.41
2019-04-20T16:32:28.576Z,94450.47
2019-04-20T16:34:58.200Z,94452.00
2019-04-20T16:37:26.851Z,94449.47
2019-04-20T16:39:56.547Z,94452.36
2019-04-20T16:42:26.653Z,94446.77
2019-04-20T16:44:55.159Z,94443.64
2019-04-20T16:47:24.070Z,94447.13
2019-04-20T16:49:52.892Z,94448.66
2019-04-20T16:52:21.469Z,94442.66
2019-04-20T16:54:50.153Z,94447.27
2019-04-20T16:57:19.534Z,94446.66
2019-04-20T16:59:52.265Z,94436.36
2019-04-20T17:02:19.900Z,94441.48
2019-04-20T17:04:51.288Z,94443.31
2019-04-20T17:07:20.796Z,94442.33
2019-04-20T17:09:52.421Z,94440.16
2019-04-20T17:12:23.753Z,94442.06
2019-04-20T17:14:53.606Z,94442.55
2019-04-20T17:17:22.491Z,94441.84
2019-04-20T17:19:51.490Z,94434.85
2019-04-20T17:22:21.505Z,94439.88
2019-04-20T17:24:51.366Z,94444.41
2019-04-20T17:27:28.908Z,94438.90
2019-04-20T17:30:03.226Z,94444.08
2019-04-20T17:32:33.751Z,94439.41
2019-04-20T17:35:19.164Z,94445.01
2019-04-20T17:37:39.081Z,94444.17
2019-04-20T17:40:26.459Z,94444.98
2019-04-20T17:42:47.218Z,94441.62
2019-04-20T17:45:11.379Z,94449.48
2019-04-20T17:47:55.972Z,94451.27
2019-04-20T17:50:24.049Z,94452.19
2019-04-20T17:52:53.887Z,94448.08
2019-04-20T17:55:19.771Z,94449.58
2019-04-20T17:57:39.736Z,94448.73
2019-04-20T18:00:29.094Z,94454.28
2019-04-20T18:03:14.821Z,94458.59
2019-04-20T18:05:57.057Z,94466.11
2019-04-20T18:08:27.351Z,94469.80
2019-04-20T18:10:45.642Z,94468.94
2019-04-20T18:13:12.040Z,94465.56
2019-04-20T18:15:48.832Z,94467.91
2019-04-20T18:18:38.998Z,94465.23
2019-04-20T18:20:56.996Z,94460.41
2019-04-20T18:23:33.405Z,94466.92
2019-04-20T18:26:18.510Z,94473.73
2019-04-20T18:28:40.162Z,94471.09
2019-04-20T18:31:03.447Z,94472.12
2019-04-20T18:33:33.526Z,94473.19
2019-04-20T18:36:00.435Z,94470.53
2019-04-20T18:38:30.521Z,94471.08
2019-04-20T18:41:04.623Z,94472.20
2019-04-20T18:43:30.958Z,94469.66
2019-04-20T18:46:20.658Z,94474.38
2019-04-20T18:48:50.953Z,94475.30
2019-04-20T18:51:01.758Z,94474.31
2019-04-20T18:53:37.453Z,94478.15
2019-04-20T18:56:02.714Z,94481.36
2019-04-20T18:58:31.236Z,94485.77
2019-04-20T19:01:01.070Z,94485.05
2019-04-20T19:03:38.102Z,94489.02
2019-04-20T19:06:00.231Z,94491.86
2019-04-20T19:08:33.765Z,94494.98
2019-04-20T19:11:04.199Z,94498.03
2019-04-20T19:13:41.513Z,94498.53
2019-04-20T19:16:29.721Z,94499.52
2019-04-20T19:19:19.420Z,94504.05
2019-04-20T19:21:35.255Z,94499.27
2019-04-20T19:24:10.946Z,94506.11
2019-04-20T19:26:34.376Z,94505.91
2019-04-20T19:29:11.090Z,94500.63
2019-04-20T19:31:45.807Z,94500.20
2019-04-20T19:34:19.010Z,94504.08
2019-04-20T19:36:41.448Z,94502.84
2019-04-20T19:39:21.290Z,94505.60
2019-04-20T19:41:44.173Z,94498.17
2019-04-20T19:44:16.137Z,94498.40
2019-04-20T19:47:03.308Z,94498.28
2019-04-20T19:49:19.585Z,94498.70
2019-04-20T19:52:02.822Z,94500.22
2019-04-20T19:54:29.971Z,94497.44
2019-04-20T19:56:54.335Z,94499.88
2019-04-20T19:59:19.495Z,94499.48
2019-04-20T20:01:38.051Z,94498.78
2019-04-20T20:04:09.828Z,94492.15
2019-04-20T20:06:45.313Z,94496.94
2019-04-20T20:09:12.231Z,94495.91
2019-04-20T20:11:42.311Z,94498.61
2019-04-20T20:14:11.793Z,94496.63
2019-04-20T20:17:01.536Z,94493.67
2019-04-20T20:19:27.387Z,94493.02
2019-04-20T20:21:55.496Z,94489.21
2019-04-20T20:24:11.310Z,94491.14
2019-04-20T20:26:44.632Z,94500.00
2019-04-20T20:29:19.408Z,94491.06
2019-04-20T20:31:56.267Z,94489.27
2019-04-20T20:34:20.191Z,94496.36
2019-04-20T20:36:47.282Z,94488.64
2019-04-20T20:39:20.101Z,94484.66
2019-04-20T20:41:56.119Z,94480.05
2019-04-20T20:44:28.700Z,94486.73
2019-04-20T20:46:56.289Z,94481.89
2019-04-20T20:49:33.197Z,94471.91
2019-04-20T20:52:06.736Z,94478.66
2019-04-20T20:54:30.906Z,94471.06
2019-04-20T20:56:56.796Z,94472.79
2019-04-20T20:59:32.009Z,94467.61
2019-04-20T21:01:54.091Z,94463.49
2019-04-20T21:04:17.497Z,94461.33
2019-04-20T21:06:46.561Z,94460.41
2019-04-20T21:09:16.536Z,94459.45
2019-04-20T21:11:46.335Z,94467.30
2019-04-20T21:14:19.870Z,94465.53
2019-04-20T21:16:53.502Z,94466.98
2019-04-20T21:19:28.609Z,94465.53
2019-04-20T21:21:57.107Z,94467.42
2019-04-20T21:24:23.689Z,94471.38
2019-04-20T21:26:53.843Z,94467.20
2019-04-20T21:29:30.164Z,94470.47
2019-04-20T21:32:02.877Z,94473.61
2019-04-20T21:34:24.176Z,94464.59
2019-04-20T21:36:55.293Z,94468.14
2019-04-20T21:39:34.562Z,94460.63
2019-04-20T21:42:01.453Z,94454.65
2019-04-20T21:44:28.471Z,94459.00
2019-04-20T21:46:55.999Z,94463.14
2019-04-20T21:49:39.952Z,94456.34
2019-04-20T21:52:01.124Z,94455.97
2019-04-20T21:54:25.440Z,94458.16
2019-04-20T21:57:00.245Z,94452.91
2019-04-20T21:59:32.162Z,94455.89
2019-04-20T22:02:03.404Z,94452.49
2019-04-20T22:04:25.207Z,94453.59
2019-04-20T22:06:54.299Z,94450.97
2019-04-20T22:09:25.139Z,94448.84
2019-04-20T22:11:53.877Z,94450.02
2019-04-20T22:14:26.279Z,94444.25
2019-04-20T22:16:55.091Z,94445.41
2019-04-20T22:19:36.007Z,94447.06
2019-04-20T22:22:07.702Z,94442.52
2019-04-20T22:24:40.312Z,94439.36
2019-04-20T22:27:05.392Z,94445.43
2019-04-20T22:29:24.248Z,94442.19
2019-04-20T22:32:02.715Z,94442.55
2019-04-20T22:34:25.535Z,94440.80
2019-04-20T22:36:53.837Z,94446.61
2019-04-20T22:39:35.580Z,94445.22
2019-04-20T22:42:07.419Z,94441.34
2019-04-20T22:44:32.444Z,94442.98
2019-04-20T22:47:04.419Z,94438.08
2019-04-20T22:49:44.219Z,94433.31
2019-04-20T22:52:18.494Z,94426.23
2019-04-20T22:54:44.689Z,94427.31
2019-04-20T22:57:11.821Z,94425.82
2019-04-20T22:59:44.727Z,94419.28
2019-04-20T23:02:03.944Z,94420.92
2019-04-20T23:04:33.065Z,94405.81
2019-04-20T23:07:03.245Z,94406.34
2019-04-20T23:09:34.198Z,94403.44
2019-04-20T23:12:09.184Z,94399.77
2019-04-20T23:14:32.235Z,94408.41
2019-04-20T23:17:02.019Z,94397.98
2019-04-20T23:19:39.170Z,94401.94
2019-04-20T23:22:04.796Z,94402.39
2019-04-20T23:24:31.165Z,94405.47
2019-04-20T23:27:06.583Z,94405.64
2019-04-20T23:29:35.744Z,94406.06
2019-04-20T23:32:05.138Z,94403.12
2019-04-20T23:34:33.786Z,94400.49
2019-04-20T23:37:00.954Z,94393.63
2019-04-20T23:39:35.531Z,94393.63
2019-04-20T23:42:03.950Z,94395.55
2019-04-20T23:44:35.714Z,94386.56
2019-04-20T23:47:25.478Z,94380.08
2019-04-20T23:50:13.620Z,94381.71
2019-04-20T23:52:49.402Z,94378.64
2019-04-20T23:55:03.000Z,94377.28
2019-04-20T23:57:27.549Z,94367.44
2019-04-20T23:59:56.290Z,94367.27
